createdAt,value
2022-11-18T00:01:34.340Z,-3.76
2022-11-18T00:04:03.480Z,-3.72
2022-11-18T00:06:32.348Z,-3.80
2022-11-18T00:09:01.875Z,-3.60
2022-11-18T00:11:48.956Z,-3.75
2022-11-18T00:14:21.497Z,-3.59
2022-11-18T00:16:51.899Z,-3.46
2022-11-18T00:19:21.356Z,-3.44
2022-11-18T00:21:50.245Z,-3.46
2022-11-18T00:24:19.506Z,-3.42
2022-11-18T00:26:48.825Z,-3.56
2022-11-18T00:29:19.890Z,-3.80
2022-11-18T00:31:49.210Z,-3.72
2022-11-18T00:34:19.130Z,-3.66
2022-11-18T00:36:48.975Z,-3.73
2022-11-18T00:39:19.356Z,-3.51
2022-11-18T00:42:06.110Z,-3.56
2022-11-18T00:44:37.059Z,-3.48
2022-11-18T00:47:06.188Z,-3.66
2022-11-18T00:49:34.740Z,-3.68
2022-11-18T00:52:03.741Z,-3.66
2022-11-18T00:54:32.783Z,-3.63
2022-11-18T00:57:01.703Z,-3.67
2022-11-18T00:59:30.792Z,-3.83
2022-11-18T01:02:01.013Z,-3.93
2022-11-18T01:04:29.879Z,-4.27
2022-11-18T01:06:58.812Z,-4.06
2022-11-18T01:09:27.759Z,-3.87
2022-11-18T01:12:13.767Z,-4.06
2022-11-18T01:14:42.635Z,-4.06
2022-11-18T01:17:12.851Z,-4.06
2022-11-18T01:19:41.422Z,-4.01
2022-11-18T01:22:10.285Z,-3.88
2022-11-18T01:24:39.158Z,-3.85
2022-11-18T01:27:08.055Z,-3.71
2022-11-18T01:29:37.795Z,-3.96
2022-11-18T01:32:24.824Z,-4.05
2022-11-18T01:34:55.411Z,-3.88
2022-11-18T01:37:24.509Z,-3.81
2022-11-18T01:39:53.633Z,-3.80
2022-11-18T01:42:22.568Z,-4.22
2022-11-18T01:45:17.130Z,-3.90
2022-11-18T01:47:50.281Z,-4.06
2022-11-18T01:50:21.891Z,-4.18
2022-11-18T01:52:52.112Z,-4.02
2022-11-18T01:55:26.266Z,-3.97
2022-11-18T01:58:00.220Z,-3.83
2022-11-18T02:00:29.289Z,-4.00
2022-11-18T02:02:58.722Z,-3.82
2022-11-18T02:05:29.986Z,-3.81
2022-11-18T02:07:59.181Z,-3.64
2022-11-18T02:10:28.302Z,-3.75
2022-11-18T02:12:57.741Z,-3.68
2022-11-18T02:15:35.176Z,-3.58
2022-11-18T02:18:10.668Z,-3.69
2022-11-18T02:20:43.827Z,-3.59
2022-11-18T02:23:51.482Z,-3.54
2022-11-18T02:26:52.161Z,-3.67
2022-11-18T02:29:26.097Z,-3.79
2022-11-18T02:32:00.117Z,-3.62
2022-11-18T02:34:41.855Z,-3.55
2022-11-18T02:37:17.499Z,-3.68
2022-11-18T02:39:49.624Z,-3.56
2022-11-18T02:42:18.827Z,-3.71
2022-11-18T02:44:52.919Z,-3.44
2022-11-18T02:47:22.742Z,-3.48
2022-11-18T02:49:53.790Z,-3.54
2022-11-18T02:52:23.089Z,-3.68
2022-11-18T02:54:52.562Z,-3.64
2022-11-18T02:57:22.549Z,-3.68
2022-11-18T02:59:52.989Z,-3.72
2022-11-18T03:02:22.236Z,-3.92
2022-11-18T03:04:55.272Z,-3.97
2022-11-18T03:07:27.661Z,-3.90
2022-11-18T03:09:56.979Z,-4.21
2022-11-18T03:12:33.045Z,-3.91
2022-11-18T03:15:10.833Z,-3.82
2022-11-18T03:17:47.308Z,-3.84
2022-11-18T03:20:21.148Z,-3.68
2022-11-18T03:22:54.210Z,-3.84
2022-11-18T03:25:26.406Z,-3.94
2022-11-18T03:27:59.348Z,-3.90
2022-11-18T03:30:32.489Z,-3.84
2022-11-18T03:33:04.702Z,-3.92
2022-11-18T03:35:35.289Z,-3.86
2022-11-18T03:38:08.771Z,-4.27
2022-11-18T03:40:38.941Z,-4.22
2022-11-18T03:43:10.849Z,-4.24
2022-11-18T03:45:45.102Z,-4.07
2022-11-18T03:48:17.105Z,-4.24
2022-11-18T03:50:49.361Z,-4.29
2022-11-18T03:53:19.662Z,-4.34
2022-11-18T03:55:50.458Z,-4.18
2022-11-18T03:58:22.572Z,-4.04
2022-11-18T04:00:54.472Z,-4.19
2022-11-18T04:03:26.108Z,-4.30
2022-11-18T04:06:04.939Z,-4.39
2022-11-18T04:08:40.107Z,-4.43
2022-11-18T04:11:33.262Z,-4.56
2022-11-18T04:14:02.400Z,-4.66
2022-11-18T04:16:32.711Z,-4.75
2022-11-18T04:19:05.988Z,-4.52
2022-11-18T04:21:35.418Z,-4.78
2022-11-18T04:24:04.857Z,-4.54
2022-11-18T04:26:33.750Z,-4.60
2022-11-18T04:29:02.658Z,-4.56
2022-11-18T04:31:32.561Z,-4.45
2022-11-18T04:34:01.580Z,-4.59
2022-11-18T04:36:30.462Z,-4.51
2022-11-18T04:38:59.364Z,-4.63
2022-11-18T04:41:42.007Z,-4.71
2022-11-18T04:44:13.524Z,-4.75
2022-11-18T04:46:45.313Z,-4.68
2022-11-18T04:49:16.298Z,-4.51
2022-11-18T04:51:46.680Z,-4.57
2022-11-18T04:54:16.391Z,-4.60
2022-11-18T04:56:49.016Z,-4.51
2022-11-18T04:59:21.096Z,-4.74
2022-11-18T05:01:52.126Z,-4.57
2022-11-18T05:04:22.471Z,-4.46
2022-11-18T05:06:51.807Z,-4.46
2022-11-18T05:09:21.550Z,-4.49
2022-11-18T05:12:08.598Z,-4.57
2022-11-18T05:14:37.628Z,-4.59
2022-11-18T05:17:09.788Z,-4.59
2022-11-18T05:19:39.409Z,-4.68
2022-11-18T05:22:08.799Z,-4.71
2022-11-18T05:24:37.731Z,-4.65
2022-11-18T05:27:06.798Z,-4.76
2022-11-18T05:29:36.009Z,-4.83
2022-11-18T05:32:05.196Z,-4.74
2022-11-18T05:34:35.291Z,-4.87
2022-11-18T05:37:04.250Z,-4.82
2022-11-18T05:39:34.001Z,-4.75
2022-11-18T05:42:16.717Z,-4.66
2022-11-18T05:44:45.987Z,-4.68
2022-11-18T05:47:14.908Z,-4.89
2022-11-18T05:49:45.101Z,-4.74
2022-11-18T05:52:14.232Z,-4.77
2022-11-18T05:54:47.992Z,-4.54
2022-11-18T05:57:16.935Z,-4.49
2022-11-18T05:59:45.863Z,-4.40
2022-11-18T06:02:17.656Z,-4.28
2022-11-18T06:04:49.637Z,-4.36
2022-11-18T06:07:22.826Z,-4.37
2022-11-18T06:09:54.446Z,-4.35
2022-11-18T06:12:28.556Z,-4.38
2022-11-18T06:15:01.365Z,-4.39
2022-11-18T06:17:33.005Z,-4.24
2022-11-18T06:20:04.355Z,-4.17
2022-11-18T06:22:33.025Z,-4.36
2022-11-18T06:25:02.158Z,-4.59
2022-11-18T06:27:31.661Z,-4.46
2022-11-18T06:30:00.529Z,-4.42
2022-11-18T06:32:29.370Z,-4.47
2022-11-18T06:34:58.279Z,-4.36
2022-11-18T06:37:28.305Z,-4.39
2022-11-18T06:39:57.230Z,-4.45
2022-11-18T06:42:45.853Z,-4.48
2022-11-18T06:45:16.504Z,-4.58
2022-11-18T06:47:44.604Z,-4.53
2022-11-18T06:50:13.688Z,-4.35
2022-11-18T06:52:43.739Z,-4.14
2022-11-18T06:55:12.694Z,-4.26
2022-11-18T06:57:41.521Z,-4.17
2022-11-18T07:00:11.814Z,-4.10
2022-11-18T07:02:40.840Z,-4.10
2022-11-18T07:05:10.037Z,-4.11
2022-11-18T07:07:42.002Z,-3.98
2022-11-18T07:10:13.240Z,-3.87
2022-11-18T07:12:42.246Z,-3.98
2022-11-18T07:15:11.867Z,-4.02
2022-11-18T07:17:40.763Z,-3.86
2022-11-18T07:20:10.631Z,-3.91
2022-11-18T07:22:39.235Z,-3.93
2022-11-18T07:25:08.436Z,-3.90
2022-11-18T07:27:38.713Z,-4.07
2022-11-18T07:30:07.919Z,-3.89
2022-11-18T07:32:36.859Z,-4.02
2022-11-18T07:35:06.298Z,-3.73
2022-11-18T07:37:35.297Z,-3.56
2022-11-18T07:40:04.318Z,-3.53
2022-11-18T07:42:42.794Z,-3.48
2022-11-18T07:45:25.994Z,-3.63
2022-11-18T07:47:54.971Z,-3.59
2022-11-18T07:50:24.022Z,-3.40
2022-11-18T07:52:52.542Z,-3.33
2022-11-18T07:55:21.438Z,-3.40
2022-11-18T07:57:50.418Z,-3.53
2022-11-18T08:00:20.537Z,-3.53
2022-11-18T08:02:52.775Z,-3.36
2022-11-18T08:05:21.850Z,-3.38
2022-11-18T08:07:50.369Z,-3.39
2022-11-18T08:10:19.520Z,-3.44
2022-11-18T08:12:48.750Z,-3.52
2022-11-18T08:15:17.767Z,-3.48
2022-11-18T08:17:46.633Z,-3.57
2022-11-18T08:20:17.501Z,-3.62
2022-11-18T08:22:46.125Z,-3.62
2022-11-18T08:25:14.976Z,-3.44
2022-11-18T08:27:43.935Z,-3.35
2022-11-18T08:30:14.016Z,-3.17
2022-11-18T08:32:43.088Z,-2.79
2022-11-18T08:35:12.143Z,-2.96
2022-11-18T08:37:42.047Z,-3.03
2022-11-18T08:40:11.700Z,-3.61
2022-11-18T08:42:40.665Z,-3.25
2022-11-18T08:45:10.288Z,-2.98
2022-11-18T08:47:39.272Z,-2.69
2022-11-18T08:50:10.579Z,-2.61
2022-11-18T08:52:39.282Z,-2.47
2022-11-18T08:55:10.133Z,-2.49
2022-11-18T08:57:39.142Z,-2.65
2022-11-18T09:00:09.169Z,-2.64
2022-11-18T09:02:38.161Z,-2.36
2022-11-18T09:05:07.855Z,-2.30
2022-11-18T09:07:36.644Z,-2.30
2022-11-18T09:10:06.556Z,-2.29
2022-11-18T09:12:36.925Z,-2.33
2022-11-18T09:15:13.320Z,-2.47
2022-11-18T09:17:43.061Z,-2.26
2022-11-18T09:20:12.765Z,-2.51
2022-11-18T09:22:41.311Z,-2.43
2022-11-18T09:25:10.953Z,-2.33
2022-11-18T09:27:41.346Z,-2.45
2022-11-18T09:30:11.320Z,-2.47
2022-11-18T09:32:40.209Z,-2.99
2022-11-18T09:35:09.392Z,-2.51
2022-11-18T09:37:37.850Z,-2.67
2022-11-18T09:40:07.943Z,-2.26
2022-11-18T09:42:51.549Z,-2.14
2022-11-18T09:45:24.892Z,-1.97
2022-11-18T09:47:58.852Z,-1.93
2022-11-18T09:50:48.476Z,-1.83
2022-11-18T09:53:21.634Z,-1.94
2022-11-18T09:55:51.921Z,-2.02
2022-11-18T09:58:23.092Z,-1.85
2022-11-18T10:00:52.328Z,-1.91
2022-11-18T10:03:27.364Z,-2.18
2022-11-18T10:05:59.673Z,-2.15
2022-11-18T10:08:31.656Z,-1.88
2022-11-18T10:11:05.769Z,-1.81
2022-11-18T10:13:46.593Z,-1.69
2022-11-18T10:16:25.937Z,-1.43
2022-11-18T10:19:01.446Z,-1.60
2022-11-18T10:21:39.926Z,-1.69
2022-11-18T10:24:14.723Z,-1.81
2022-11-18T10:26:43.956Z,-1.96
2022-11-18T10:29:14.249Z,-1.60
2022-11-18T10:31:59.519Z,-1.44
2022-11-18T10:34:31.922Z,-1.64
2022-11-18T10:37:02.152Z,-2.30
2022-11-18T10:39:31.071Z,-2.04
2022-11-18T10:42:03.437Z,-2.18
2022-11-18T10:44:36.838Z,-2.30
2022-11-18T10:47:27.451Z,-1.90
2022-11-18T10:49:57.453Z,-1.76
2022-11-18T10:52:26.864Z,-1.32
2022-11-18T10:55:21.233Z,-1.19
2022-11-18T10:57:52.815Z,-1.96
2022-11-18T11:00:38.944Z,-1.43
2022-11-18T11:03:27.317Z,-0.86
2022-11-18T11:06:35.483Z,-0.35
2022-11-18T11:09:09.227Z,-0.16
2022-11-18T11:11:40.221Z,0.17
2022-11-18T11:14:17.520Z,0.59
2022-11-18T11:16:53.621Z,1.56
2022-11-18T11:19:25.364Z,2.15
2022-11-18T11:21:54.639Z,2.30
2022-11-18T11:24:26.824Z,1.03
2022-11-18T11:30:13.267Z,0.43
2022-11-18T11:33:31.265Z,0.50
2022-11-18T11:36:27.168Z,2.14
2022-11-18T11:39:06.036Z,1.84
2022-11-18T11:41:42.322Z,1.51
2022-11-18T11:44:31.551Z,0.77
2022-11-18T11:47:29.732Z,0.86
2022-11-18T11:50:04.045Z,0.58
2022-11-18T11:52:39.595Z,0.46
2022-11-18T11:55:18.313Z,0.11
2022-11-18T11:58:01.269Z,-0.40
2022-11-18T12:00:32.847Z,-0.81
2022-11-18T12:03:08.823Z,-1.60
2022-11-18T12:05:43.212Z,-1.89
2022-11-18T12:08:15.710Z,-1.87
2022-11-18T12:10:47.145Z,-2.22
2022-11-18T12:13:35.234Z,-2.26
2022-11-18T12:16:13.154Z,-2.07
2022-11-18T12:18:44.403Z,-2.28
2022-11-18T12:21:46.694Z,-2.23
2022-11-18T12:24:37.802Z,-2.21
2022-11-18T12:27:12.589Z,-2.51
2022-11-18T12:29:45.741Z,-2.53
2022-11-18T12:32:28.763Z,-2.35
2022-11-18T12:35:00.992Z,-2.56
2022-11-18T12:37:47.185Z,-2.91
2022-11-18T12:40:36.787Z,-2.44
2022-11-18T12:43:23.858Z,-2.22
2022-11-18T12:45:57.697Z,-2.53
2022-11-18T12:48:40.019Z,-2.25
2022-11-18T12:51:45.200Z,-1.94
2022-11-18T12:54:29.063Z,-1.90
2022-11-18T12:57:01.210Z,-2.03
2022-11-18T12:59:35.728Z,-1.92
2022-11-18T13:02:18.562Z,-2.03
2022-11-18T13:04:52.116Z,-2.27
2022-11-18T13:07:39.367Z,-2.38
2022-11-18T13:10:17.978Z,-2.69
2022-11-18T13:12:48.640Z,-2.97
2022-11-18T13:15:34.808Z,-2.86
2022-11-18T13:18:16.254Z,-2.91
2022-11-18T13:20:45.801Z,-2.79
2022-11-18T13:23:47.191Z,-2.79
2022-11-18T13:26:20.541Z,-2.78
2022-11-18T13:29:20.702Z,-2.65
2022-11-18T13:31:51.034Z,-2.50
2022-11-18T13:34:22.558Z,-2.53
2022-11-18T13:36:53.235Z,-2.80
2022-11-18T13:39:24.566Z,-2.69
2022-11-18T13:42:04.068Z,-2.67
2022-11-18T13:44:35.740Z,-2.99
2022-11-18T13:47:13.558Z,-2.55
2022-11-18T13:49:50.829Z,-2.69
2022-11-18T13:52:22.291Z,-2.85
2022-11-18T13:54:52.642Z,-3.14
2022-11-18T13:57:23.701Z,-3.12
2022-11-18T13:59:55.128Z,-2.93
2022-11-18T14:02:24.155Z,-3.04
2022-11-18T14:04:58.365Z,-2.88
2022-11-18T14:07:32.944Z,-3.09
2022-11-18T14:10:03.741Z,-3.00
2022-11-18T14:12:33.804Z,-3.08
2022-11-18T14:15:21.915Z,-3.13
2022-11-18T14:17:56.535Z,-3.37
2022-11-18T14:20:26.357Z,-3.34
2022-11-18T14:22:58.622Z,-3.36
2022-11-18T14:25:30.035Z,-3.47
2022-11-18T14:28:12.453Z,-3.44
2022-11-18T14:30:44.228Z,-3.64
2022-11-18T14:33:18.051Z,-3.78
2022-11-18T14:35:51.005Z,-3.64
2022-11-18T14:38:37.105Z,-3.62
2022-11-18T14:41:12.967Z,-3.83
2022-11-18T14:43:42.919Z,-3.78
2022-11-18T14:46:17.517Z,-3.49
2022-11-18T14:48:47.073Z,-3.82
2022-11-18T14:51:16.920Z,-4.02
2022-11-18T14:53:46.269Z,-3.79
2022-11-18T14:56:21.140Z,-3.76
2022-11-18T14:58:49.658Z,-3.76
2022-11-18T15:01:20.167Z,-3.69
2022-11-18T15:03:49.115Z,-3.74
2022-11-18T15:06:19.403Z,-3.76
2022-11-18T15:08:50.270Z,-3.80
2022-11-18T15:11:19.591Z,-3.77
2022-11-18T15:13:48.502Z,-3.76
2022-11-18T15:16:21.007Z,-3.67
2022-11-18T15:18:52.920Z,-3.76
2022-11-18T15:21:22.111Z,-3.72
2022-11-18T15:23:51.148Z,-3.55
2022-11-18T15:26:22.229Z,-3.60
2022-11-18T15:28:51.683Z,-3.64
2022-11-18T15:31:22.306Z,-3.50
2022-11-18T15:33:51.356Z,-3.61
2022-11-18T15:36:21.789Z,-3.68
2022-11-18T15:38:51.410Z,-3.89
2022-11-18T15:41:21.720Z,-3.89
2022-11-18T15:43:50.755Z,-4.08
2022-11-18T15:46:22.451Z,-4.01
2022-11-18T15:48:53.282Z,-3.81
2022-11-18T15:51:22.624Z,-4.05
2022-11-18T15:53:51.614Z,-4.32
2022-11-18T15:56:28.889Z,-4.17
2022-11-18T15:58:58.415Z,-4.31
2022-11-18T16:01:30.226Z,-4.38
2022-11-18T16:03:59.213Z,-4.14
2022-11-18T16:06:28.490Z,-4.64
2022-11-18T16:09:00.177Z,-4.39
2022-11-18T16:11:47.359Z,-4.47
2022-11-18T16:14:18.523Z,-4.33
2022-11-18T16:16:49.726Z,-4.42
2022-11-18T16:19:20.051Z,-4.56
2022-11-18T16:21:50.794Z,-4.63
2022-11-18T16:24:22.090Z,-4.66
2022-11-18T16:26:51.501Z,-4.44
2022-11-18T16:29:21.186Z,-4.22
2022-11-18T16:31:52.913Z,-4.24
2022-11-18T16:34:23.589Z,-4.28
2022-11-18T16:36:53.900Z,-4.16
2022-11-18T16:39:25.080Z,-4.08
2022-11-18T16:41:55.806Z,-4.59
2022-11-18T16:44:25.284Z,-4.50
2022-11-18T16:46:57.650Z,-4.66
2022-11-18T16:49:27.771Z,-4.64
2022-11-18T16:51:58.358Z,-4.51
2022-11-18T16:54:28.680Z,-4.73
2022-11-18T16:56:57.892Z,-4.82
2022-11-18T16:59:28.760Z,-4.72
2022-11-18T17:02:00.183Z,-4.59
2022-11-18T17:04:30.495Z,-4.53
2022-11-18T17:07:00.625Z,-4.61
2022-11-18T17:09:29.548Z,-4.71
2022-11-18T17:11:59.684Z,-4.82
2022-11-18T17:14:28.817Z,-5.01
2022-11-18T17:16:59.166Z,-4.70
2022-11-18T17:19:27.727Z,-4.72
2022-11-18T17:21:57.160Z,-4.78
2022-11-18T17:24:27.275Z,-4.83
2022-11-18T17:26:56.605Z,-4.67
2022-11-18T17:29:25.621Z,-5.01
2022-11-18T17:31:55.556Z,-4.77
2022-11-18T17:34:25.981Z,-4.66
2022-11-18T17:36:56.812Z,-4.82
2022-11-18T17:39:28.124Z,-4.77
2022-11-18T17:42:15.199Z,-4.72
2022-11-18T17:44:44.150Z,-4.78
2022-11-18T17:47:12.967Z,-4.95
2022-11-18T17:49:42.799Z,-4.79
2022-11-18T17:52:11.385Z,-4.61
2022-11-18T17:54:40.283Z,-4.64
2022-11-18T17:57:09.386Z,-4.78
2022-11-18T17:59:38.251Z,-5.00
2022-11-18T18:02:09.798Z,-4.95
2022-11-18T18:04:38.378Z,-4.88
2022-11-18T18:07:08.917Z,-4.97
2022-11-18T18:09:38.072Z,-4.96
2022-11-18T18:12:27.727Z,-4.81
2022-11-18T18:14:55.495Z,-4.87
2022-11-18T18:17:24.461Z,-4.81
2022-11-18T18:19:52.946Z,-5.16
2022-11-18T18:22:23.256Z,-5.08
2022-11-18T18:24:52.111Z,-5.13
2022-11-18T18:27:21.286Z,-5.22
2022-11-18T18:29:50.215Z,-5.22
2022-11-18T18:32:19.063Z,-5.07
2022-11-18T18:34:47.716Z,-4.76
2022-11-18T18:37:16.517Z,-4.97
2022-11-18T18:39:46.813Z,-4.78
2022-11-18T18:42:15.512Z,-4.59
2022-11-18T18:45:01.586Z,-4.88
2022-11-18T18:47:30.480Z,-4.83
2022-11-18T18:49:59.370Z,-4.93
2022-11-18T18:52:27.902Z,-4.81
2022-11-18T18:54:58.211Z,-4.86
2022-11-18T18:57:27.137Z,-4.90
2022-11-18T18:59:56.095Z,-4.75
2022-11-18T19:02:25.085Z,-4.91
2022-11-18T19:04:53.951Z,-4.86
2022-11-18T19:07:23.054Z,-4.77
2022-11-18T19:09:51.986Z,-4.68
2022-11-18T19:12:39.830Z,-4.55
2022-11-18T19:15:10.584Z,-4.69
2022-11-18T19:17:39.624Z,-4.63
2022-11-18T19:20:26.552Z,-4.72
2022-11-18T19:22:55.351Z,-4.86
2022-11-18T19:25:24.192Z,-4.74
2022-11-18T19:27:54.516Z,-4.82
2022-11-18T19:30:23.719Z,-4.74
2022-11-18T19:32:54.588Z,-4.68
2022-11-18T19:35:23.852Z,-4.72
2022-11-18T19:37:52.331Z,-4.77
2022-11-18T19:40:21.374Z,-4.82
2022-11-18T19:42:50.265Z,-4.60
2022-11-18T19:45:21.090Z,-4.82
2022-11-18T19:47:49.982Z,-5.03
2022-11-18T19:50:19.012Z,-5.02
2022-11-18T19:52:49.302Z,-4.81
2022-11-18T19:55:18.425Z,-4.75
2022-11-18T19:57:47.347Z,-4.84
2022-11-18T20:00:17.877Z,-4.93
2022-11-18T20:02:48.203Z,-4.74
2022-11-18T20:05:34.604Z,-4.75
2022-11-18T20:08:03.186Z,-4.80
2022-11-18T20:10:32.170Z,-4.82
2022-11-18T20:13:01.174Z,-4.73
2022-11-18T20:15:29.984Z,-4.72
2022-11-18T20:18:01.636Z,-4.77
2022-11-18T20:20:30.552Z,-4.54
2022-11-18T20:22:59.504Z,-4.42
2022-11-18T20:25:29.254Z,-4.55
2022-11-18T20:27:58.112Z,-4.54
2022-11-18T20:30:27.140Z,-4.66
2022-11-18T20:32:56.098Z,-4.81
2022-11-18T20:35:26.772Z,-4.80
2022-11-18T20:37:55.339Z,-4.95
2022-11-18T20:40:24.111Z,-4.98
2022-11-18T20:43:10.411Z,-5.06
2022-11-18T20:45:39.743Z,-5.03
2022-11-18T20:48:08.834Z,-4.79
2022-11-18T20:50:39.848Z,-4.74
2022-11-18T20:53:08.620Z,-5.04
2022-11-18T20:55:38.233Z,-4.92
2022-11-18T20:58:07.245Z,-4.80
2022-11-18T21:00:36.263Z,-4.78
2022-11-18T21:03:05.919Z,-5.12
2022-11-18T21:05:36.295Z,-4.94
2022-11-18T21:08:07.222Z,-4.86
2022-11-18T21:10:36.041Z,-4.91
2022-11-18T21:13:22.490Z,-4.89
2022-11-18T21:15:51.387Z,-4.89
2022-11-18T21:18:20.475Z,-4.83
2022-11-18T21:21:06.864Z,-4.77
2022-11-18T21:23:37.161Z,-4.87
2022-11-18T21:26:12.838Z,-4.86
2022-11-18T21:28:41.923Z,-4.89
2022-11-18T21:31:11.753Z,-5.01
2022-11-18T21:33:40.664Z,-5.01
2022-11-18T21:36:09.956Z,-5.08
2022-11-18T21:38:40.155Z,-5.09
2022-11-18T21:41:09.002Z,-4.97
2022-11-18T21:46:28.405Z,-5.04
2022-11-18T21:49:00.306Z,-5.30
2022-11-18T21:51:31.581Z,-5.54
2022-11-18T21:54:02.147Z,-5.53
2022-11-18T21:56:31.822Z,-5.46
2022-11-18T21:59:02.055Z,-5.56
2022-11-18T22:01:31.454Z,-5.62
2022-11-18T22:04:02.623Z,-5.70
2022-11-18T22:06:33.620Z,-5.75
2022-11-18T22:09:06.179Z,-5.62
2022-11-18T22:11:35.008Z,-5.80
2022-11-18T22:14:04.571Z,-5.77
2022-11-18T22:16:33.042Z,-5.70
2022-11-18T22:19:07.890Z,-5.64
2022-11-18T22:21:37.352Z,-5.60
2022-11-18T22:24:08.589Z,-5.72
2022-11-18T22:26:37.445Z,-5.61
2022-11-18T22:29:06.436Z,-5.52
2022-11-18T22:31:35.690Z,-5.51
2022-11-18T22:34:04.580Z,-5.58
2022-11-18T22:36:33.617Z,-5.63
2022-11-18T22:39:02.662Z,-5.58
2022-11-18T22:41:55.659Z,-5.47
2022-11-18T22:44:24.549Z,-5.47
2022-11-18T22:46:53.730Z,-5.67
2022-11-18T22:49:22.718Z,-5.87
2022-11-18T22:51:51.537Z,-5.69
2022-11-18T22:54:38.243Z,-5.77
2022-11-18T22:57:09.523Z,-5.48
2022-11-18T22:59:38.281Z,-5.52
2022-11-18T23:02:07.089Z,-5.39
2022-11-18T23:04:35.181Z,-5.44
2022-11-18T23:07:03.825Z,-5.61
2022-11-18T23:09:32.298Z,-5.54
2022-11-18T23:12:18.242Z,-5.47
2022-11-18T23:14:48.070Z,-5.41
2022-11-18T23:17:16.922Z,-5.47
2022-11-18T23:19:46.210Z,-5.46
2022-11-18T23:22:14.994Z,-5.43
2022-11-18T23:24:43.459Z,-5.65
2022-11-18T23:27:11.890Z,-5.60
2022-11-18T23:29:40.370Z,-5.46
2022-11-18T23:32:10.261Z,-5.40
2022-11-18T23:34:38.353Z,-5.77
2022-11-18T23:37:06.774Z,-5.72
2022-11-18T23:39:36.355Z,-5.58
2022-11-18T23:42:05.218Z,-5.78
2022-11-18T23:44:52.662Z,-5.58
2022-11-18T23:47:22.648Z,-5.70
2022-11-18T23:49:50.730Z,-5.55
2022-11-18T23:52:19.114Z,-5.56
2022-11-18T23:54:49.790Z,-5.46
2022-11-18T23:57:18.337Z,-5.47
2022-11-18T23:59:46.751Z,-5.32
